createdAt,value
2018-10-19T00:00:33.691Z,36.88
2018-10-19T00:01:35.954Z,27.35
2018-10-19T00:02:38.599Z,40.25
2018-10-19T00:03:41.039Z,42.75
2018-10-19T00:04:43.441Z,36.68
2018-10-19T00:05:45.614Z,29.25
2018-10-19T00:06:47.806Z,42.33
2018-10-19T00:07:50.037Z,47.53
2018-10-19T00:08:52.984Z,41.85
2018-10-19T00:09:55.138Z,33.73
2018-10-19T00:10:58.062Z,38.85
2018-10-19T00:12:00.461Z,37.93
2018-10-19T00:13:02.689Z,39.73
2018-10-19T00:14:04.929Z,42.62
2018-10-19T00:15:07.636Z,39.35
2018-10-19T00:16:09.755Z,36.83
2018-10-19T00:17:11.975Z,40.25
2018-10-19T00:18:14.173Z,40.85
2018-10-19T00:19:16.330Z,51.77
2018-10-19T00:20:18.713Z,38.10
2018-10-19T00:21:20.916Z,37.80
2018-10-19T00:22:23.089Z,41.23
2018-10-19T00:23:25.576Z,40.38
2018-10-19T00:24:27.759Z,39.30
2018-10-19T00:25:30.109Z,35.00
2018-10-19T00:26:32.282Z,35.68
2018-10-19T00:27:34.828Z,30.70
2018-10-19T00:28:37.596Z,39.23
2018-10-19T00:29:39.846Z,33.18
2018-10-19T00:30:42.378Z,41.68
2018-10-19T00:31:44.801Z,33.85
2018-10-19T00:32:53.659Z,32.03
2018-10-19T00:33:55.826Z,38.53
2018-10-19T00:34:58.031Z,35.33
2018-10-19T00:36:00.345Z,37.93
2018-10-19T00:37:02.520Z,31.42
2018-10-19T00:38:04.802Z,37.55
2018-10-19T00:39:08.573Z,41.18
2018-10-19T00:40:10.765Z,36.75
2018-10-19T00:41:13.002Z,41.13
2018-10-19T00:42:15.133Z,31.87
2018-10-19T00:43:17.616Z,32.73
2018-10-19T00:44:19.886Z,39.10
2018-10-19T00:45:27.606Z,45.40
2018-10-19T00:46:29.794Z,41.25
2018-10-19T00:47:31.952Z,36.80
2018-10-19T00:48:34.202Z,45.92
2018-10-19T00:49:36.470Z,40.38
2018-10-19T00:50:39.220Z,39.92
2018-10-19T00:51:41.442Z,39.60
2018-10-19T00:52:43.613Z,46.70
2018-10-19T00:53:45.793Z,38.02
2018-10-19T00:54:47.970Z,48.90
2018-10-19T00:55:50.173Z,33.42
2018-10-19T00:56:52.317Z,38.88
2018-10-19T00:57:54.525Z,46.45
2018-10-19T00:58:56.744Z,35.90
2018-10-19T00:59:58.914Z,46.83
2018-10-19T01:01:01.202Z,35.30
2018-10-19T01:02:03.436Z,38.20
2018-10-19T01:03:05.939Z,46.23
2018-10-19T01:04:08.080Z,36.20
2018-10-19T01:05:10.239Z,42.30
2018-10-19T01:06:12.418Z,42.00
2018-10-19T01:07:14.609Z,48.68
2018-10-19T01:08:16.829Z,39.88
2018-10-19T01:09:19.006Z,37.50
2018-10-19T01:10:23.577Z,43.05
2018-10-19T01:11:25.770Z,39.78
2018-10-19T01:12:27.933Z,40.88
2018-10-19T01:13:30.113Z,42.10
2018-10-19T01:14:32.470Z,45.48
2018-10-19T01:15:34.642Z,40.43
2018-10-19T01:16:36.820Z,35.08
2018-10-19T01:17:39.062Z,40.75
2018-10-19T01:18:41.378Z,35.85
2018-10-19T01:19:43.856Z,40.55
2018-10-19T01:20:46.041Z,38.42
2018-10-19T01:21:48.669Z,47.55
2018-10-19T01:22:50.835Z,32.35
2018-10-19T01:23:53.034Z,36.33
2018-10-19T01:24:55.267Z,46.10
2018-10-19T01:25:57.714Z,30.68
2018-10-19T01:26:59.990Z,50.90
2018-10-19T01:28:02.150Z,40.50
2018-10-19T01:29:04.543Z,41.25
2018-10-19T01:30:07.382Z,38.88
2018-10-19T01:31:09.544Z,40.43
2018-10-19T01:32:11.746Z,37.78
2018-10-19T01:33:14.113Z,48.65
2018-10-19T01:34:16.209Z,56.10
2018-10-19T01:35:18.378Z,47.45
2018-10-19T01:36:21.238Z,47.83
2018-10-19T01:37:23.415Z,42.20
2018-10-19T01:38:25.618Z,34.92
2018-10-19T01:39:27.838Z,44.75
2018-10-19T01:40:30.153Z,50.20
2018-10-19T01:41:32.333Z,48.95
2018-10-19T01:42:34.753Z,56.13
2018-10-19T01:43:37.182Z,43.65
2018-10-19T01:44:39.608Z,42.08
2018-10-19T01:45:47.580Z,45.52
2018-10-19T01:46:50.084Z,43.75
2018-10-19T01:47:52.368Z,36.77
2018-10-19T01:48:54.657Z,41.95
2018-10-19T01:49:56.886Z,44.75
2018-10-19T01:50:59.167Z,52.83
2018-10-19T01:52:01.444Z,38.45
2018-10-19T01:53:03.767Z,49.18
2018-10-19T01:54:06.015Z,42.30
2018-10-19T01:55:08.254Z,54.03
2018-10-19T01:56:10.386Z,44.33
2018-10-19T01:57:12.673Z,43.87
2018-10-19T01:58:15.309Z,48.48
2018-10-19T01:59:17.666Z,49.98
2018-10-19T02:00:19.714Z,46.18
2018-10-19T02:01:22.278Z,40.38
2018-10-19T02:02:24.441Z,44.85
2018-10-19T02:03:26.904Z,42.03
2018-10-19T02:04:29.369Z,36.60
2018-10-19T02:05:31.546Z,46.45
2018-10-19T02:06:33.760Z,46.30
2018-10-19T02:07:36.014Z,41.92
2018-10-19T02:08:38.536Z,56.05
2018-10-19T02:09:40.962Z,42.27
2018-10-19T02:10:43.157Z,45.58
2018-10-19T02:11:45.300Z,60.08
2018-10-19T02:12:47.480Z,44.75
2018-10-19T02:13:49.638Z,48.58
2018-10-19T02:14:51.862Z,45.55
2018-10-19T02:15:54.016Z,43.05
2018-10-19T02:16:56.336Z,46.33
2018-10-19T02:17:58.473Z,40.12
2018-10-19T02:19:00.694Z,64.53
2018-10-19T02:20:02.890Z,47.45
2018-10-19T02:21:05.538Z,49.20
2018-10-19T02:22:07.931Z,36.28
2018-10-19T02:23:10.258Z,37.83
2018-10-19T02:24:12.409Z,47.98
2018-10-19T02:25:14.584Z,44.15
2018-10-19T02:26:16.781Z,41.70
2018-10-19T02:27:18.933Z,45.38
2018-10-19T02:28:21.123Z,36.23
2018-10-19T02:29:23.306Z,49.03
2018-10-19T02:30:25.782Z,48.90
2018-10-19T02:31:28.311Z,40.60
2018-10-19T02:32:30.509Z,40.25
2018-10-19T02:33:32.697Z,39.65
2018-10-19T02:34:34.918Z,46.50
2018-10-19T02:35:37.079Z,46.48
2018-10-19T02:36:39.409Z,55.15
2018-10-19T02:37:41.736Z,40.00
2018-10-19T02:38:43.884Z,50.58
2018-10-19T02:39:46.030Z,49.45
2018-10-19T02:40:48.197Z,41.92
2018-10-19T02:41:50.381Z,54.38
2018-10-19T02:42:52.558Z,43.55
2018-10-19T02:43:54.726Z,40.90
2018-10-19T02:44:57.149Z,39.95
2018-10-19T02:45:59.249Z,39.10
2018-10-19T02:47:01.461Z,42.27
2018-10-19T02:48:03.866Z,41.45
2018-10-19T02:49:06.071Z,53.20
2018-10-19T02:50:08.991Z,41.00
2018-10-19T02:51:11.246Z,61.30
2018-10-19T02:52:13.333Z,50.17
2018-10-19T02:53:15.710Z,52.85
2018-10-19T02:54:17.738Z,40.90
2018-10-19T02:55:19.915Z,43.40
2018-10-19T02:56:22.072Z,40.48
2018-10-19T02:57:24.224Z,47.83
2018-10-19T02:58:26.445Z,53.15
2018-10-19T02:59:28.601Z,47.58
2018-10-19T03:00:30.798Z,43.30
2018-10-19T03:01:32.966Z,54.25
2018-10-19T03:02:35.178Z,44.05
2018-10-19T03:03:37.374Z,45.52
2018-10-19T03:04:39.543Z,56.08
2018-10-19T03:05:42.257Z,49.27
2018-10-19T03:06:44.449Z,49.98
2018-10-19T03:07:46.661Z,56.88
2018-10-19T03:08:48.844Z,42.58
2018-10-19T03:09:51.009Z,43.50
2018-10-19T03:10:53.209Z,44.58
2018-10-19T03:11:55.759Z,40.85
2018-10-19T03:12:57.899Z,44.10
2018-10-19T03:14:00.034Z,40.98
2018-10-19T03:15:02.230Z,57.55
2018-10-19T03:16:04.602Z,45.33
2018-10-19T03:17:06.856Z,38.92
2018-10-19T03:18:08.967Z,43.40
2018-10-19T03:19:11.139Z,41.53
2018-10-19T03:20:13.310Z,37.10
2018-10-19T03:21:15.559Z,47.78
2018-10-19T03:22:17.649Z,38.53
2018-10-19T03:23:19.807Z,50.03
2018-10-19T03:24:21.937Z,32.55
2018-10-19T03:25:24.140Z,42.78
2018-10-19T03:26:26.333Z,46.23
2018-10-19T03:27:28.513Z,44.18
2018-10-19T03:28:30.657Z,55.00
2018-10-19T03:29:33.149Z,40.48
2018-10-19T03:30:35.299Z,54.20
2018-10-19T03:31:37.474Z,50.80
2018-10-19T03:32:39.653Z,49.58
2018-10-19T03:33:41.935Z,49.88
2018-10-19T03:34:44.366Z,40.50
2018-10-19T03:35:46.520Z,43.45
2018-10-19T03:36:48.669Z,46.48
2018-10-19T03:37:50.842Z,44.18
2018-10-19T03:38:53.063Z,55.33
2018-10-19T03:39:55.301Z,41.10
2018-10-19T03:40:57.778Z,59.08
2018-10-19T03:41:59.998Z,49.10
2018-10-19T03:43:02.590Z,47.08
2018-10-19T03:44:05.018Z,49.00
2018-10-19T03:45:07.254Z,49.48
2018-10-19T03:46:09.393Z,48.50
2018-10-19T03:47:11.616Z,59.27
2018-10-19T03:48:13.704Z,45.85
2018-10-19T03:49:15.886Z,46.63
2018-10-19T03:50:18.021Z,50.10
2018-10-19T03:51:20.216Z,50.28
2018-10-19T03:52:22.360Z,47.62
2018-10-19T03:53:24.501Z,64.82
2018-10-19T03:54:26.663Z,57.95
2018-10-19T03:55:28.897Z,53.75
2018-10-19T03:56:31.065Z,46.55
2018-10-19T03:57:33.197Z,45.28
2018-10-19T03:58:35.340Z,55.43
2018-10-19T03:59:37.466Z,41.83
2018-10-19T04:00:39.617Z,44.60
2018-10-19T04:01:41.793Z,44.23
2018-10-19T04:02:44.366Z,49.65
2018-10-19T04:03:46.891Z,45.28
2018-10-19T04:04:48.905Z,44.70
2018-10-19T04:05:51.144Z,75.62
2018-10-19T04:06:53.331Z,46.80
2018-10-19T04:07:55.555Z,56.28
2018-10-19T04:08:57.960Z,48.60
2018-10-19T04:10:00.101Z,46.80
2018-10-19T04:11:02.292Z,44.25
2018-10-19T04:12:05.125Z,54.75
2018-10-19T04:13:07.309Z,55.03
2018-10-19T04:14:10.791Z,53.68
2018-10-19T04:15:13.029Z,50.63
2018-10-19T04:16:15.185Z,49.15
2018-10-19T04:17:17.690Z,44.67
2018-10-19T04:18:19.781Z,47.53
2018-10-19T04:19:21.912Z,48.50
2018-10-19T04:20:24.074Z,42.30
2018-10-19T04:21:26.231Z,58.42
2018-10-19T04:22:28.394Z,53.92
2018-10-19T04:23:30.590Z,59.93
2018-10-19T04:24:32.789Z,47.78
2018-10-19T04:25:35.825Z,45.83
2018-10-19T04:26:37.969Z,41.13
2018-10-19T04:27:40.236Z,48.38
2018-10-19T04:28:42.328Z,42.20
2018-10-19T04:29:44.797Z,51.68
2018-10-19T04:30:46.957Z,52.45
2018-10-19T04:31:49.520Z,40.28
2018-10-19T04:32:51.657Z,57.10
2018-10-19T04:33:53.827Z,49.77
2018-10-19T04:34:56.712Z,52.03
2018-10-19T04:35:58.927Z,56.85
2018-10-19T04:37:03.038Z,58.87
2018-10-19T04:38:05.197Z,54.27
2018-10-19T04:39:08.014Z,56.48
2018-10-19T04:40:14.206Z,51.65
2018-10-19T04:41:16.470Z,44.23
2018-10-19T04:42:18.640Z,52.62
2018-10-19T04:43:20.693Z,40.58
2018-10-19T04:44:22.895Z,52.80
2018-10-19T04:45:25.067Z,56.68
2018-10-19T04:46:27.517Z,51.50
2018-10-19T04:47:29.706Z,51.90
2018-10-19T04:48:31.909Z,45.48
2018-10-19T04:49:34.051Z,47.33
2018-10-19T04:50:36.258Z,52.23
2018-10-19T04:51:38.392Z,46.23
2018-10-19T04:52:40.522Z,55.90
2018-10-19T04:53:42.740Z,55.23
2018-10-19T04:54:45.074Z,55.40
2018-10-19T04:55:47.254Z,55.55
2018-10-19T04:56:49.420Z,48.08
2018-10-19T04:57:51.771Z,49.20
2018-10-19T04:58:53.961Z,50.30
2018-10-19T04:59:56.178Z,51.55
2018-10-19T05:00:58.396Z,47.05
2018-10-19T05:02:00.612Z,48.15
2018-10-19T05:03:02.810Z,43.28
2018-10-19T05:04:05.354Z,43.42
2018-10-19T05:05:08.069Z,41.45
2018-10-19T05:06:10.159Z,43.00
2018-10-19T05:07:12.275Z,54.98
2018-10-19T05:08:14.657Z,53.28
2018-10-19T05:09:16.857Z,45.90
2018-10-19T05:10:19.027Z,48.55
2018-10-19T05:11:21.222Z,52.05
2018-10-19T05:12:23.737Z,61.33
2018-10-19T05:13:25.898Z,48.68
2018-10-19T05:14:28.061Z,56.45
2018-10-19T05:15:30.203Z,42.73
2018-10-19T05:16:32.461Z,50.80
2018-10-19T05:17:35.005Z,45.45
2018-10-19T05:18:37.137Z,56.58
2018-10-19T05:19:39.316Z,53.08
2018-10-19T05:20:41.513Z,59.77
2018-10-19T05:21:43.674Z,56.50
2018-10-19T05:22:46.157Z,43.50
2018-10-19T05:23:48.514Z,38.40
2018-10-19T05:24:50.863Z,52.45
2018-10-19T05:25:53.203Z,45.48
2018-10-19T05:26:55.326Z,44.77
2018-10-19T05:27:57.756Z,62.33
2018-10-19T05:29:00.036Z,39.23
2018-10-19T05:30:02.405Z,47.65
2018-10-19T05:31:04.569Z,54.60
2018-10-19T05:32:06.993Z,54.00
2018-10-19T05:33:09.202Z,51.10
2018-10-19T05:34:11.365Z,49.77
2018-10-19T05:35:13.558Z,56.68
2018-10-19T05:36:15.729Z,55.10
2018-10-19T05:37:18.134Z,50.63
2018-10-19T05:38:20.311Z,40.75
2018-10-19T05:39:22.466Z,62.23
2018-10-19T05:40:24.799Z,44.00
2018-10-19T05:41:27.060Z,56.05
2018-10-19T05:42:29.603Z,74.10
2018-10-19T05:43:31.866Z,48.75
2018-10-19T05:44:40.756Z,53.15
2018-10-19T05:45:42.937Z,54.00
2018-10-19T05:46:45.503Z,54.27
2018-10-19T05:47:47.788Z,49.73
2018-10-19T05:48:50.006Z,48.05
2018-10-19T05:49:52.171Z,54.33
2018-10-19T05:50:54.637Z,65.15
2018-10-19T05:51:56.858Z,50.58
2018-10-19T05:52:59.075Z,47.30
2018-10-19T05:54:01.269Z,55.03
2018-10-19T05:55:03.503Z,54.20
2018-10-19T05:56:06.040Z,47.20
2018-10-19T05:57:08.212Z,53.75
2018-10-19T05:58:10.404Z,54.83
2018-10-19T05:59:12.663Z,55.00
2018-10-19T06:00:14.837Z,43.05
2018-10-19T06:01:17.019Z,40.40
2018-10-19T06:02:19.312Z,67.10
2018-10-19T06:03:21.476Z,52.62
2018-10-19T06:04:23.678Z,57.43
2018-10-19T06:05:25.904Z,49.20
2018-10-19T06:06:28.316Z,50.52
2018-10-19T06:07:30.741Z,59.83
2018-10-19T06:08:32.950Z,54.00
2018-10-19T06:09:35.109Z,48.87
2018-10-19T06:10:37.297Z,58.70
2018-10-19T06:11:39.927Z,56.55
2018-10-19T06:12:42.164Z,49.95
2018-10-19T06:13:44.377Z,68.67
2018-10-19T06:14:46.582Z,55.98
2018-10-19T06:15:48.846Z,55.63
2018-10-19T06:16:51.073Z,58.10
2018-10-19T06:17:53.233Z,60.98
2018-10-19T06:18:55.502Z,48.50
2018-10-19T06:19:58.895Z,60.10
2018-10-19T06:21:01.080Z,45.58
2018-10-19T06:22:03.272Z,55.67
2018-10-19T06:23:05.518Z,51.70
2018-10-19T06:24:08.277Z,53.75
2018-10-19T06:25:10.449Z,54.08
2018-10-19T06:26:12.669Z,59.15
2018-10-19T06:27:14.809Z,50.65
2018-10-19T06:28:17.108Z,55.78
2018-10-19T06:29:19.369Z,58.63
2018-10-19T06:30:21.537Z,53.33
2018-10-19T06:31:23.759Z,43.95
2018-10-19T06:32:26.046Z,77.22
2018-10-19T06:33:28.218Z,57.17
2018-10-19T06:34:30.414Z,53.10
2018-10-19T06:35:32.638Z,48.38
2018-10-19T06:36:34.932Z,49.60
2018-10-19T06:37:37.099Z,44.25
2018-10-19T06:38:39.283Z,53.13
2018-10-19T06:39:41.509Z,49.93
2018-10-19T06:40:43.710Z,54.98
2018-10-19T06:41:46.246Z,48.55
2018-10-19T06:42:48.928Z,62.40
2018-10-19T06:43:51.175Z,55.17
2018-10-19T06:44:53.381Z,53.60
2018-10-19T06:45:55.539Z,57.10
2018-10-19T06:46:57.825Z,41.45
2018-10-19T06:48:00.341Z,72.00
2018-10-19T06:49:02.640Z,59.05
2018-10-19T06:50:07.050Z,43.40
2018-10-19T06:51:09.433Z,39.05
2018-10-19T06:52:11.691Z,51.48
2018-10-19T06:53:14.007Z,71.72
2018-10-19T06:54:16.530Z,58.08
2018-10-19T06:55:19.321Z,54.90
2018-10-19T06:56:21.542Z,55.35
2018-10-19T06:57:23.766Z,70.50
2018-10-19T06:58:25.971Z,53.45
2018-10-19T06:59:28.250Z,56.77
2018-10-19T07:00:30.381Z,63.40
2018-10-19T07:01:32.613Z,57.62
2018-10-19T07:02:34.831Z,60.85
2018-10-19T07:03:37.969Z,63.30
2018-10-19T07:04:40.507Z,61.20
2018-10-19T07:05:42.717Z,65.67
2018-10-19T07:06:44.931Z,51.50
2018-10-19T07:07:47.527Z,53.40
2018-10-19T07:08:49.927Z,51.00
2018-10-19T07:09:52.516Z,53.55
2018-10-19T07:10:54.970Z,49.42
2018-10-19T07:11:57.435Z,60.73
2018-10-19T07:12:59.609Z,57.15
2018-10-19T07:14:02.131Z,51.53
2018-10-19T07:15:05.916Z,48.85
2018-10-19T07:16:08.160Z,57.25
2018-10-19T07:17:10.381Z,59.38
2018-10-19T07:18:12.523Z,49.98
2018-10-19T07:19:14.798Z,46.92
2018-10-19T07:20:16.987Z,50.00
2018-10-19T07:21:20.354Z,50.03
2018-10-19T07:22:22.614Z,51.02
2018-10-19T07:23:24.846Z,65.70
2018-10-19T07:24:27.111Z,58.63
2018-10-19T07:25:29.534Z,71.75
2018-10-19T07:26:31.715Z,53.98
2018-10-19T07:27:33.948Z,54.33
2018-10-19T07:28:36.233Z,48.73
2018-10-19T07:29:38.472Z,53.92
2018-10-19T07:30:40.639Z,60.00
2018-10-19T07:31:42.857Z,53.45
2018-10-19T07:32:45.062Z,55.33
2018-10-19T07:33:47.317Z,57.30
2018-10-19T07:34:49.673Z,51.08
2018-10-19T07:35:51.842Z,48.20
2018-10-19T07:36:54.002Z,50.35
2018-10-19T07:37:56.161Z,49.90
2018-10-19T07:38:58.370Z,63.63
2018-10-19T07:40:00.574Z,70.67
2018-10-19T07:41:03.231Z,55.38
2018-10-19T07:42:05.387Z,57.50
2018-10-19T07:43:07.814Z,80.22
2018-10-19T07:44:09.990Z,56.80
2018-10-19T07:45:12.145Z,62.80
2018-10-19T07:46:14.410Z,69.10
2018-10-19T07:47:16.755Z,64.65
2018-10-19T07:48:18.927Z,58.80
2018-10-19T07:49:21.424Z,64.80
2018-10-19T07:50:23.897Z,46.02
2018-10-19T07:51:26.180Z,68.15
2018-10-19T07:52:28.514Z,70.25
2018-10-19T07:53:31.021Z,53.68
2018-10-19T07:54:33.273Z,56.23
2018-10-19T07:55:35.491Z,58.80
2018-10-19T07:56:37.780Z,64.42
2018-10-19T07:57:40.120Z,74.05
2018-10-19T07:58:42.621Z,57.50
2018-10-19T07:59:44.804Z,51.63
2018-10-19T08:00:47.210Z,62.03
2018-10-19T08:01:49.404Z,51.42
2018-10-19T08:02:51.780Z,55.67
2018-10-19T08:03:54.064Z,53.48
2018-10-19T08:04:56.510Z,55.40
2018-10-19T08:05:58.721Z,70.55
2018-10-19T08:07:00.905Z,71.77
2018-10-19T08:08:03.220Z,55.45
2018-10-19T08:09:07.653Z,70.28
2018-10-19T08:10:10.351Z,66.75
2018-10-19T08:11:12.727Z,58.75
2018-10-19T08:12:14.840Z,63.15
2018-10-19T08:13:17.055Z,53.50
2018-10-19T08:14:19.262Z,54.77
2018-10-19T08:15:21.471Z,53.23
2018-10-19T08:16:23.677Z,62.43
2018-10-19T08:17:26.013Z,50.65
2018-10-19T08:18:28.262Z,52.75
2018-10-19T08:19:30.446Z,66.55
2018-10-19T08:20:32.849Z,51.15
2018-10-19T08:21:35.159Z,73.65
2018-10-19T08:22:37.816Z,50.35
2018-10-19T08:23:40.074Z,51.63
2018-10-19T08:24:42.262Z,64.42
2018-10-19T08:25:44.443Z,68.42
2018-10-19T08:26:46.643Z,63.63
2018-10-19T08:27:49.067Z,63.50
2018-10-19T08:28:51.542Z,53.30
2018-10-19T08:29:53.696Z,68.65
2018-10-19T08:30:55.889Z,67.15
2018-10-19T08:31:58.177Z,65.65
2018-10-19T08:33:00.357Z,55.67
2018-10-19T08:34:02.623Z,55.00
2018-10-19T08:35:05.666Z,62.00
2018-10-19T08:36:07.867Z,73.50
2018-10-19T08:37:10.112Z,67.03
2018-10-19T08:38:12.534Z,65.15
2018-10-19T08:39:14.793Z,64.27
2018-10-19T08:40:16.975Z,56.63
2018-10-19T08:41:19.221Z,61.30
2018-10-19T08:42:21.419Z,82.05
2018-10-19T08:43:23.628Z,70.10
2018-10-19T08:44:25.789Z,65.40
2018-10-19T08:45:28.133Z,63.10
2018-10-19T08:46:36.849Z,50.90
2018-10-19T08:47:39.056Z,68.92
2018-10-19T08:48:41.205Z,64.47
2018-10-19T08:49:43.393Z,52.73
2018-10-19T08:50:45.777Z,58.33
2018-10-19T08:51:47.955Z,48.02
2018-10-19T08:52:50.169Z,73.42
2018-10-19T08:53:54.028Z,72.37
2018-10-19T08:54:56.212Z,75.28
2018-10-19T08:55:58.410Z,64.67
2018-10-19T08:57:00.638Z,78.45
2018-10-19T08:58:02.906Z,68.12
2018-10-19T08:59:05.167Z,73.33
2018-10-19T09:00:08.732Z,65.37
2018-10-19T09:01:10.947Z,69.25
2018-10-19T09:02:13.190Z,69.20
2018-10-19T09:03:15.431Z,58.83
2018-10-19T09:04:17.573Z,54.50
2018-10-19T09:05:19.773Z,71.55
2018-10-19T09:06:22.046Z,65.12
2018-10-19T09:07:24.398Z,63.10
2018-10-19T09:08:26.612Z,65.83
2018-10-19T09:09:28.802Z,84.60
2018-10-19T09:10:31.097Z,71.53
2018-10-19T09:11:33.454Z,75.30
2018-10-19T09:12:35.669Z,55.52
2018-10-19T09:13:38.763Z,52.88
2018-10-19T09:14:54.340Z,57.58
2018-10-19T09:15:56.469Z,55.48
2018-10-19T09:16:58.752Z,55.80
2018-10-19T09:18:00.914Z,69.05
2018-10-19T09:19:03.382Z,63.40
2018-10-19T09:20:06.107Z,60.45
2018-10-19T09:21:08.327Z,63.55
2018-10-19T09:22:10.572Z,67.25
2018-10-19T09:23:12.810Z,65.65
2018-10-19T09:24:14.892Z,85.38
2018-10-19T09:25:17.201Z,53.23
2018-10-19T09:26:19.442Z,67.20
2018-10-19T09:27:21.677Z,68.57
2018-10-19T09:28:24.111Z,62.08
2018-10-19T09:29:26.294Z,43.70
2018-10-19T09:30:28.623Z,74.35
2018-10-19T09:31:30.863Z,74.15
2018-10-19T09:32:33.077Z,57.17
2018-10-19T09:33:35.265Z,76.82
2018-10-19T09:34:37.475Z,55.58
2018-10-19T09:35:40.041Z,65.35
2018-10-19T09:36:42.264Z,78.20
2018-10-19T09:38:53.431Z,52.10
2018-10-19T09:39:55.643Z,66.55
2018-10-19T09:40:57.906Z,76.42
2018-10-19T09:42:00.123Z,57.17
2018-10-19T09:43:02.321Z,70.90
2018-10-19T09:44:04.744Z,56.50
2018-10-19T09:45:07.452Z,61.45
2018-10-19T09:46:09.620Z,61.85
2018-10-19T09:47:11.855Z,60.50
2018-10-19T09:48:14.008Z,64.27
2018-10-19T09:49:16.239Z,70.47
2018-10-19T09:50:18.421Z,50.48
2018-10-19T09:51:20.846Z,62.05
2018-10-19T09:52:23.081Z,67.80
2018-10-19T09:53:25.313Z,85.38
2018-10-19T09:54:27.563Z,70.85
2018-10-19T09:55:29.823Z,54.90
2018-10-19T09:56:32.603Z,61.50
2018-10-19T09:57:34.816Z,82.92
2018-10-19T09:58:37.015Z,73.75
2018-10-19T09:59:39.203Z,74.72
2018-10-19T10:00:47.162Z,61.45
2018-10-19T10:01:49.583Z,56.98
2018-10-19T10:02:51.753Z,60.12
2018-10-19T10:03:54.110Z,63.60
2018-10-19T10:04:56.376Z,60.30
2018-10-19T10:05:58.489Z,63.75
2018-10-19T10:07:00.786Z,60.12
2018-10-19T10:08:03.002Z,70.60
2018-10-19T10:09:10.993Z,75.25
2018-10-19T10:10:13.262Z,67.20
2018-10-19T10:11:15.481Z,51.65
2018-10-19T10:12:17.696Z,61.65
2018-10-19T10:13:19.883Z,73.28
2018-10-19T10:14:22.037Z,81.20
2018-10-19T10:15:24.311Z,69.30
2018-10-19T10:16:26.508Z,68.22
2018-10-19T10:17:28.861Z,75.25
2018-10-19T10:18:31.130Z,71.55
2018-10-19T10:19:33.388Z,73.75
2018-10-19T10:20:35.717Z,60.23
2018-10-19T10:21:37.908Z,64.42
2018-10-19T10:22:40.171Z,52.25
2018-10-19T10:23:42.692Z,66.53
2018-10-19T10:24:45.120Z,61.90
2018-10-19T10:25:47.290Z,53.40
2018-10-19T10:26:49.463Z,54.93
2018-10-19T10:27:51.837Z,47.58
2018-10-19T10:28:54.091Z,51.37
2018-10-19T10:29:56.270Z,54.73
2018-10-19T10:30:58.588Z,61.68
2018-10-19T10:32:00.999Z,60.73
2018-10-19T10:33:03.218Z,74.35
2018-10-19T10:34:05.498Z,64.03
2018-10-19T10:35:08.276Z,80.97
2018-10-19T10:36:10.441Z,80.17
2018-10-19T10:37:13.007Z,64.80
2018-10-19T10:38:15.302Z,74.20
2018-10-19T10:39:17.580Z,63.35
2018-10-19T10:40:19.859Z,63.02
2018-10-19T10:41:21.988Z,71.87
2018-10-19T10:42:24.310Z,56.73
2018-10-19T10:43:26.465Z,71.87
2018-10-19T10:44:28.631Z,77.50
2018-10-19T10:45:30.855Z,73.47
2018-10-19T10:46:33.114Z,55.50
2018-10-19T10:47:35.550Z,65.50
2018-10-19T10:48:37.726Z,68.20
2018-10-19T10:49:39.924Z,55.23
2018-10-19T10:50:42.230Z,69.30
2018-10-19T10:51:44.493Z,73.00
2018-10-19T10:52:46.698Z,65.20
2018-10-19T10:53:48.906Z,64.05
2018-10-19T10:54:51.298Z,74.80
2018-10-19T10:55:53.533Z,56.28
2018-10-19T10:56:55.724Z,69.70
2018-10-19T10:57:57.989Z,56.73
2018-10-19T10:59:00.152Z,70.22
2018-10-19T11:00:02.400Z,73.20
2018-10-19T11:01:04.756Z,74.72
2018-10-19T11:02:06.921Z,62.05
2018-10-19T11:03:09.445Z,79.82
2018-10-19T11:04:11.671Z,72.95
2018-10-19T11:05:13.853Z,80.25
2018-10-19T11:06:16.062Z,79.45
2018-10-19T11:07:18.401Z,74.97
2018-10-19T11:08:20.610Z,81.20
2018-10-19T11:09:22.821Z,74.70
2018-10-19T11:10:25.245Z,65.17
2018-10-19T11:11:27.505Z,78.62
2018-10-19T11:12:29.790Z,85.67
2018-10-19T11:13:31.993Z,59.65
2018-10-19T11:14:34.243Z,78.92
2018-10-19T11:15:36.412Z,61.20
2018-10-19T11:16:38.613Z,65.08
2018-10-19T11:17:40.862Z,78.45
2018-10-19T11:18:43.325Z,77.25
2018-10-19T11:19:46.011Z,69.37
2018-10-19T11:20:48.197Z,80.57
2018-10-19T11:21:50.409Z,78.00
2018-10-19T11:22:52.719Z,68.42
2018-10-19T11:23:54.942Z,58.48
2018-10-19T11:24:57.087Z,67.00
2018-10-19T11:25:59.252Z,54.18
2018-10-19T11:27:01.457Z,59.73
2018-10-19T11:28:03.829Z,53.73
2018-10-19T11:29:06.212Z,62.65
2018-10-19T11:30:08.932Z,49.88
2018-10-19T11:31:11.183Z,51.68
2018-10-19T11:32:13.325Z,59.58
2018-10-19T11:33:15.745Z,48.83
2018-10-19T11:34:17.972Z,54.80
2018-10-19T11:35:20.156Z,74.60
2018-10-19T11:36:22.316Z,67.30
2018-10-19T11:37:24.727Z,56.55
2018-10-19T11:38:26.956Z,69.07
2018-10-19T11:39:29.121Z,57.35
2018-10-19T11:40:33.553Z,66.37
2018-10-19T11:41:35.789Z,66.20
2018-10-19T11:42:37.989Z,64.17
2018-10-19T11:43:40.457Z,61.85
2018-10-19T11:44:42.649Z,52.48
2018-10-19T11:45:44.807Z,64.92
2018-10-19T11:46:47.248Z,54.67
2018-10-19T11:47:50.232Z,67.92
2018-10-19T11:48:52.458Z,57.58
2018-10-19T11:49:54.665Z,64.50
2018-10-19T11:50:56.998Z,57.65
2018-10-19T11:51:59.242Z,56.50
2018-10-19T11:53:01.422Z,66.25
2018-10-19T11:54:04.548Z,67.20
2018-10-19T11:55:07.114Z,62.62
2018-10-19T11:56:09.319Z,62.45
2018-10-19T11:57:11.731Z,63.35
2018-10-19T11:58:14.102Z,63.10
2018-10-19T11:59:16.169Z,70.85
2018-10-19T12:00:18.461Z,78.10
2018-10-19T12:01:20.678Z,65.50
2018-10-19T12:02:22.877Z,61.10
2018-10-19T12:03:25.399Z,66.77
2018-10-19T12:04:27.581Z,45.43
2018-10-19T12:05:29.807Z,54.40
2018-10-19T12:06:31.988Z,67.03
2018-10-19T12:07:34.328Z,46.48
2018-10-19T12:08:36.618Z,63.25
2018-10-19T12:09:38.815Z,70.95
2018-10-19T12:10:41.089Z,52.30
2018-10-19T12:11:43.197Z,64.27
2018-10-19T12:12:45.362Z,58.92
2018-10-19T12:13:47.537Z,57.83
2018-10-19T12:14:49.708Z,61.25
2018-10-19T12:15:51.904Z,64.87
2018-10-19T12:16:54.315Z,57.75
2018-10-19T12:17:56.305Z,47.30
2018-10-19T12:18:58.646Z,58.25
2018-10-19T12:20:00.754Z,56.18
2018-10-19T12:21:03.068Z,62.98
2018-10-19T12:22:05.187Z,62.05
2018-10-19T12:23:07.365Z,59.73
2018-10-19T12:24:09.857Z,50.58
2018-10-19T12:25:12.822Z,63.90
2018-10-19T12:26:15.226Z,53.25
2018-10-19T12:27:17.439Z,70.10
2018-10-19T12:28:19.593Z,53.40
2018-10-19T12:29:21.778Z,55.65
2018-10-19T12:30:24.229Z,57.25
2018-10-19T12:31:26.426Z,58.65
2018-10-19T12:32:28.744Z,66.87
2018-10-19T12:33:31.022Z,64.07
2018-10-19T12:34:33.233Z,70.05
2018-10-19T12:35:35.444Z,61.50
2018-10-19T12:36:37.591Z,63.17
2018-10-19T12:37:39.741Z,57.65
2018-10-19T12:38:41.959Z,62.53
2018-10-19T12:39:44.130Z,51.85
2018-10-19T12:40:46.581Z,61.92
2018-10-19T12:41:49.092Z,51.73
2018-10-19T12:42:51.305Z,48.08
2018-10-19T12:43:53.668Z,39.90
2018-10-19T12:44:55.913Z,61.00
2018-10-19T12:46:18.565Z,63.83
2018-10-19T12:47:35.397Z,60.33
2018-10-19T12:48:37.620Z,56.23
2018-10-19T12:49:39.856Z,55.92
2018-10-19T12:50:42.074Z,53.48
2018-10-19T12:51:44.380Z,70.62
2018-10-19T12:52:46.598Z,71.42
2018-10-19T12:53:48.853Z,66.53
2018-10-19T12:54:51.073Z,48.55
2018-10-19T12:55:53.317Z,66.02
2018-10-19T12:56:55.721Z,49.23
2018-10-19T12:57:57.911Z,54.55
2018-10-19T12:59:00.122Z,54.85
2018-10-19T13:00:02.402Z,56.65
2018-10-19T13:01:04.941Z,69.90
2018-10-19T13:02:11.075Z,62.83
2018-10-19T13:03:13.384Z,56.40
2018-10-19T13:04:15.497Z,50.40
2018-10-19T13:05:17.895Z,42.45
2018-10-19T13:06:20.178Z,59.30
2018-10-19T13:07:22.532Z,52.80
2018-10-19T13:08:24.697Z,66.25
2018-10-19T13:09:26.968Z,48.33
2018-10-19T13:10:29.265Z,60.78
2018-10-19T13:11:31.473Z,45.25
2018-10-19T13:12:34.142Z,49.73
2018-10-19T13:13:36.513Z,73.87
2018-10-19T13:14:39.073Z,54.55
2018-10-19T13:15:41.277Z,55.35
2018-10-19T13:16:43.601Z,64.47
2018-10-19T13:17:45.789Z,72.67
2018-10-19T13:18:47.988Z,67.80
2018-10-19T13:19:50.173Z,58.55
2018-10-19T13:20:52.334Z,51.98
2018-10-19T13:21:54.858Z,43.87
2018-10-19T13:22:57.041Z,46.13
2018-10-19T13:23:59.273Z,56.10
2018-10-19T13:25:01.509Z,55.08